createdAt,value
2023-01-09T00:00:56.062Z,9.10
2023-01-09T00:03:23.463Z,9.10
2023-01-09T00:05:51.022Z,9.10
2023-01-09T00:08:19.266Z,9.10
2023-01-09T00:10:49.657Z,9.10
2023-01-09T00:13:18.228Z,9.10
2023-01-09T00:15:46.249Z,9.10
2023-01-09T00:18:13.594Z,9.10
2023-01-09T00:20:41.142Z,9.10
2023-01-09T00:23:08.511Z,9.10
2023-01-09T00:25:36.153Z,9.10
2023-01-09T00:28:04.051Z,9.10
2023-01-09T00:30:31.436Z,9.20
2023-01-09T00:32:58.869Z,9.20
2023-01-09T00:35:28.671Z,9.20
2023-01-09T00:37:56.096Z,9.20
2023-01-09T00:40:23.527Z,9.30
2023-01-09T00:42:55.386Z,9.30
2023-01-09T00:45:29.064Z,9.30
2023-01-09T00:48:07.236Z,9.30
2023-01-09T00:50:35.625Z,9.30
2023-01-09T00:53:09.102Z,9.30
2023-01-09T00:55:38.044Z,9.40
2023-01-09T00:58:06.000Z,9.30
2023-01-09T01:00:33.587Z,9.30
2023-01-09T01:03:00.961Z,9.30
2023-01-09T01:05:46.942Z,9.40
2023-01-09T01:08:17.870Z,9.30
2023-01-09T01:10:46.779Z,9.40
2023-01-09T01:13:15.422Z,9.40
2023-01-09T01:15:44.213Z,9.40
2023-01-09T01:18:13.024Z,9.50
2023-01-09T01:20:42.430Z,9.50
2023-01-09T01:23:10.120Z,9.50
2023-01-09T01:25:41.939Z,9.60
2023-01-09T01:28:10.522Z,9.60
2023-01-09T01:30:39.990Z,9.60
2023-01-09T01:33:07.938Z,9.60
2023-01-09T01:35:35.482Z,9.60
2023-01-09T01:38:02.920Z,9.60
2023-01-09T01:40:30.617Z,9.60
2023-01-09T01:42:58.812Z,9.60
2023-01-09T01:45:28.711Z,9.60
2023-01-09T01:48:16.465Z,9.60
2023-01-09T01:50:53.329Z,9.60
2023-01-09T01:53:28.332Z,9.60
2023-01-09T01:55:58.551Z,9.60
2023-01-09T01:58:26.994Z,9.60
2023-01-09T02:00:54.404Z,9.60
2023-01-09T02:03:26.139Z,9.60
2023-01-09T02:05:53.503Z,9.60
2023-01-09T02:08:21.576Z,9.60
2023-01-09T02:10:49.951Z,9.50
2023-01-09T02:13:17.934Z,9.50
2023-01-09T02:15:51.155Z,9.50
2023-01-09T02:18:47.798Z,9.50
2023-01-09T02:21:35.328Z,9.50
2023-01-09T02:24:34.161Z,9.50
2023-01-09T02:27:13.467Z,9.50
2023-01-09T02:30:10.168Z,9.50
2023-01-09T02:32:43.389Z,9.40
2023-01-09T02:35:20.930Z,9.40
2023-01-09T02:38:15.616Z,9.40
2023-01-09T02:40:55.849Z,9.40
2023-01-09T02:43:24.549Z,9.40
2023-01-09T02:45:51.940Z,9.40
2023-01-09T02:48:19.381Z,9.40
2023-01-09T02:50:53.599Z,9.40
2023-01-09T02:53:43.265Z,9.40
2023-01-09T02:56:37.686Z,9.40
2023-01-09T02:59:17.130Z,9.40
2023-01-09T03:02:02.458Z,9.40
2023-01-09T03:04:48.642Z,9.40
2023-01-09T03:07:29.889Z,9.40
2023-01-09T03:10:06.414Z,9.30
2023-01-09T03:12:34.918Z,9.40
2023-01-09T03:15:05.101Z,9.30
2023-01-09T03:17:38.462Z,9.30
2023-01-09T03:20:09.218Z,9.20
2023-01-09T03:22:36.744Z,9.10
2023-01-09T03:25:04.279Z,9.00
2023-01-09T03:27:31.865Z,8.90
2023-01-09T03:29:59.258Z,8.90
2023-01-09T03:32:27.824Z,8.80
2023-01-09T03:34:55.219Z,8.70
2023-01-09T03:37:22.575Z,8.70
2023-01-09T03:39:49.914Z,8.70
2023-01-09T03:42:17.266Z,8.60
2023-01-09T03:44:44.685Z,8.70
2023-01-09T03:47:12.045Z,8.70
2023-01-09T03:49:39.385Z,8.60
2023-01-09T03:52:06.883Z,8.60
2023-01-09T03:54:34.254Z,8.60
2023-01-09T03:57:01.704Z,8.60
2023-01-09T03:59:29.033Z,8.50
2023-01-09T04:01:56.509Z,8.60
2023-01-09T04:04:23.875Z,8.60
2023-01-09T04:06:51.243Z,8.60
2023-01-09T04:09:18.603Z,8.60
2023-01-09T04:11:46.011Z,8.60
2023-01-09T04:14:13.345Z,8.60
2023-01-09T04:16:40.820Z,8.60
2023-01-09T04:19:08.218Z,8.60
2023-01-09T04:21:35.564Z,8.60
2023-01-09T04:24:03.155Z,8.60
2023-01-09T04:26:30.492Z,8.70
2023-01-09T04:28:57.992Z,8.70
2023-01-09T04:31:25.357Z,8.60
2023-01-09T04:33:52.758Z,8.60
2023-01-09T04:36:20.169Z,8.60
2023-01-09T04:38:47.532Z,8.60
2023-01-09T04:41:34.867Z,8.60
2023-01-09T04:44:02.381Z,8.60
2023-01-09T04:46:29.787Z,8.60
2023-01-09T04:48:57.200Z,8.50
2023-01-09T04:51:24.623Z,8.50
2023-01-09T04:53:51.986Z,8.50
2023-01-09T04:56:19.416Z,8.50
2023-01-09T04:58:46.788Z,8.50
2023-01-09T05:01:14.236Z,8.50
2023-01-09T05:03:41.680Z,8.50
2023-01-09T05:06:09.056Z,8.50
2023-01-09T05:08:36.421Z,8.40
2023-01-09T05:11:03.849Z,8.40
2023-01-09T05:13:31.228Z,8.50
2023-01-09T05:15:58.654Z,8.40
2023-01-09T05:18:26.090Z,8.40
2023-01-09T05:20:53.455Z,8.40
2023-01-09T05:23:20.873Z,8.40
2023-01-09T05:25:48.224Z,8.40
2023-01-09T05:28:15.623Z,8.40
2023-01-09T05:30:43.050Z,8.40
2023-01-09T05:33:10.448Z,8.50
2023-01-09T05:35:37.821Z,8.50
2023-01-09T05:38:06.239Z,8.40
2023-01-09T05:40:40.110Z,8.40
2023-01-09T05:43:08.173Z,8.30
2023-01-09T05:45:35.628Z,8.30
2023-01-09T05:48:03.144Z,8.30
2023-01-09T05:50:30.515Z,8.30
2023-01-09T05:53:00.787Z,8.30
2023-01-09T05:55:28.135Z,8.30
2023-01-09T05:57:55.515Z,8.30
2023-01-09T06:00:22.926Z,8.30
2023-01-09T06:02:50.369Z,8.30
2023-01-09T06:05:17.783Z,8.20
2023-01-09T06:07:45.189Z,8.20
2023-01-09T06:10:14.290Z,8.20
2023-01-09T06:12:44.791Z,8.20
2023-01-09T06:15:12.387Z,8.10
2023-01-09T06:17:39.735Z,8.10
2023-01-09T06:20:07.729Z,8.00
2023-01-09T06:22:35.118Z,8.10
2023-01-09T06:25:03.194Z,8.10
2023-01-09T06:27:30.612Z,8.10
2023-01-09T06:29:57.937Z,8.00
2023-01-09T06:32:25.339Z,8.10
2023-01-09T06:34:52.808Z,8.00
2023-01-09T06:37:20.217Z,8.00
2023-01-09T06:39:47.652Z,8.00
2023-01-09T06:42:15.050Z,7.90
2023-01-09T06:44:42.431Z,7.90
2023-01-09T06:47:09.876Z,7.90
2023-01-09T06:49:37.321Z,7.90
2023-01-09T06:52:07.383Z,7.90
2023-01-09T06:54:35.420Z,8.00
2023-01-09T06:57:02.874Z,8.00
2023-01-09T06:59:30.259Z,8.00
2023-01-09T07:01:57.733Z,8.00
2023-01-09T07:04:25.203Z,8.00
2023-01-09T07:06:52.646Z,8.00
2023-01-09T07:09:20.004Z,8.10
2023-01-09T07:11:47.888Z,8.10
2023-01-09T07:14:15.268Z,8.20
2023-01-09T07:16:42.704Z,8.20
2023-01-09T07:19:10.048Z,8.10
2023-01-09T07:21:37.445Z,8.10
2023-01-09T07:24:04.978Z,8.00
2023-01-09T07:26:32.366Z,8.00
2023-01-09T07:28:59.709Z,8.00
2023-01-09T07:31:27.167Z,8.10
2023-01-09T07:33:54.562Z,8.10
2023-01-09T07:36:21.969Z,8.20
2023-01-09T07:38:49.377Z,8.20
2023-01-09T07:41:16.748Z,8.20
2023-01-09T07:43:44.166Z,8.30
2023-01-09T07:46:11.595Z,8.40
2023-01-09T07:48:39.059Z,8.40
2023-01-09T07:51:06.490Z,8.50
2023-01-09T07:53:33.886Z,8.50
2023-01-09T07:56:01.278Z,8.50
2023-01-09T07:58:28.627Z,8.50
2023-01-09T08:00:56.008Z,8.60
2023-01-09T08:03:23.784Z,8.60
2023-01-09T08:05:51.687Z,8.60
2023-01-09T08:08:19.130Z,8.60
2023-01-09T08:10:47.368Z,8.60
2023-01-09T08:13:14.741Z,8.60
2023-01-09T08:15:42.228Z,8.60
2023-01-09T08:18:09.665Z,8.70
2023-01-09T08:20:37.029Z,8.70
2023-01-09T08:23:04.428Z,8.60
2023-01-09T08:25:31.885Z,8.60
2023-01-09T08:27:59.333Z,8.50
2023-01-09T08:30:26.694Z,8.50
2023-01-09T08:32:54.515Z,8.60
2023-01-09T08:35:21.962Z,8.60
2023-01-09T08:37:49.524Z,8.60
2023-01-09T08:40:17.519Z,8.70
2023-01-09T08:43:03.686Z,8.80
2023-01-09T08:45:50.627Z,8.80
2023-01-09T08:48:18.037Z,8.90
2023-01-09T08:50:45.634Z,8.90
2023-01-09T08:53:13.764Z,9.00
2023-01-09T08:55:41.783Z,9.00
2023-01-09T08:58:09.252Z,9.00
2023-01-09T09:00:37.048Z,9.00
2023-01-09T09:03:04.932Z,9.00
2023-01-09T09:05:33.221Z,9.00
2023-01-09T09:08:00.706Z,9.10
2023-01-09T09:10:29.199Z,9.20
2023-01-09T09:12:58.240Z,9.30
2023-01-09T09:15:27.602Z,9.50
2023-01-09T09:17:56.170Z,9.40
2023-01-09T09:20:25.630Z,9.40
2023-01-09T09:22:53.088Z,9.40
2023-01-09T09:25:20.881Z,9.30
2023-01-09T09:27:48.863Z,9.30
2023-01-09T09:30:18.406Z,9.30
2023-01-09T09:32:46.271Z,9.40
2023-01-09T09:35:14.045Z,9.40
2023-01-09T09:37:42.038Z,9.40
2023-01-09T09:40:31.940Z,9.40
2023-01-09T09:43:48.325Z,9.50
2023-01-09T09:46:31.152Z,9.50
2023-01-09T09:49:07.093Z,9.60
2023-01-09T09:52:11.983Z,9.60
2023-01-09T09:54:49.136Z,9.70
2023-01-09T09:57:21.847Z,9.70
2023-01-09T09:59:51.544Z,9.70
2023-01-09T10:02:29.642Z,9.70
2023-01-09T10:05:39.592Z,9.70
2023-01-09T10:08:21.572Z,9.70
2023-01-09T10:10:53.735Z,9.70
2023-01-09T10:13:43.189Z,9.70
2023-01-09T10:16:35.397Z,9.70
2023-01-09T10:19:10.668Z,9.60
2023-01-09T10:22:16.559Z,9.60
2023-01-09T10:25:00.940Z,9.70
2023-01-09T10:27:43.100Z,9.60
2023-01-09T10:30:26.397Z,9.60
2023-01-09T10:33:31.148Z,9.60
2023-01-09T10:36:13.515Z,9.60
2023-01-09T10:38:42.471Z,9.60
2023-01-09T10:41:25.438Z,9.60
2023-01-09T10:44:11.434Z,9.50
2023-01-09T10:46:43.438Z,9.50
2023-01-09T10:49:17.609Z,9.50
2023-01-09T10:52:05.577Z,9.50
2023-01-09T10:54:34.011Z,9.50
2023-01-09T10:57:14.493Z,9.50
2023-01-09T10:59:42.551Z,9.50
2023-01-09T11:02:28.967Z,9.40
2023-01-09T11:04:56.408Z,9.40
2023-01-09T11:07:31.752Z,9.40
2023-01-09T11:10:12.069Z,9.40
2023-01-09T11:12:40.300Z,9.40
2023-01-09T11:15:16.998Z,9.40
2023-01-09T11:17:45.335Z,9.40
2023-01-09T11:20:22.691Z,9.40
2023-01-09T11:22:53.507Z,9.40
2023-01-09T11:25:26.663Z,9.40
2023-01-09T11:28:20.330Z,9.30
2023-01-09T11:31:05.834Z,9.30
2023-01-09T11:33:48.999Z,9.30
2023-01-09T11:36:16.513Z,9.30
2023-01-09T11:38:54.122Z,9.30
2023-01-09T11:41:28.049Z,9.30
2023-01-09T11:43:58.409Z,9.30
2023-01-09T11:46:37.447Z,9.30
2023-01-09T11:49:20.987Z,9.30
2023-01-09T11:52:17.691Z,9.30
2023-01-09T11:55:05.578Z,9.30
2023-01-09T11:57:34.561Z,9.40
2023-01-09T12:00:10.228Z,9.40
2023-01-09T12:02:57.591Z,9.40
2023-01-09T12:05:54.036Z,9.40
2023-01-09T12:08:55.938Z,9.40
2023-01-09T12:11:29.195Z,9.50
2023-01-09T12:14:10.043Z,9.60
2023-01-09T12:16:48.931Z,9.60
2023-01-09T12:19:41.956Z,9.70
2023-01-09T12:22:18.444Z,9.90
2023-01-09T12:24:54.175Z,10.00
2023-01-09T12:28:00.636Z,10.20
2023-01-09T12:30:27.977Z,10.30
2023-01-09T12:33:19.261Z,10.20
2023-01-09T12:36:04.635Z,10.20
2023-01-09T12:38:51.320Z,10.10
2023-01-09T12:41:45.734Z,10.10
2023-01-09T12:44:35.744Z,10.20
2023-01-09T12:47:34.444Z,10.20
2023-01-09T12:50:23.291Z,10.00
2023-01-09T12:53:14.275Z,9.90
2023-01-09T12:55:47.709Z,9.80
2023-01-09T12:58:29.460Z,9.80
2023-01-09T13:00:58.868Z,9.90
2023-01-09T13:03:45.555Z,10.10
2023-01-09T13:06:19.452Z,10.20
2023-01-09T13:09:14.934Z,10.30
2023-01-09T13:11:50.108Z,10.50
2023-01-09T13:14:49.105Z,10.50
2023-01-09T13:17:25.569Z,10.60
2023-01-09T13:19:54.162Z,10.70
2023-01-09T13:22:25.658Z,10.70
2023-01-09T13:25:47.005Z,10.60
2023-01-09T13:28:37.180Z,10.50
2023-01-09T13:31:21.087Z,10.40
2023-01-09T13:34:00.542Z,10.40
2023-01-09T13:36:33.137Z,10.40
2023-01-09T13:39:01.730Z,10.50
2023-01-09T13:41:48.680Z,10.60
2023-01-09T13:44:21.431Z,10.70
2023-01-09T13:46:54.144Z,10.80
2023-01-09T13:49:42.960Z,10.90
2023-01-09T13:52:28.753Z,10.90
2023-01-09T13:54:56.155Z,10.90
2023-01-09T13:58:05.451Z,10.80
2023-01-09T14:00:35.561Z,10.80
2023-01-09T14:03:17.272Z,11.00
2023-01-09T14:05:44.599Z,11.30
2023-01-09T14:08:18.122Z,11.40
2023-01-09T14:11:01.050Z,11.70
2023-01-09T14:13:31.601Z,11.80
2023-01-09T14:16:23.224Z,11.70
2023-01-09T14:19:02.139Z,11.70
2023-01-09T14:21:45.751Z,11.70
2023-01-09T14:24:40.983Z,11.70
2023-01-09T14:27:47.052Z,11.80
2023-01-09T14:30:35.231Z,11.70
2023-01-09T14:33:19.545Z,11.40
2023-01-09T14:35:52.772Z,11.30
2023-01-09T14:38:28.568Z,11.20
2023-01-09T14:41:15.508Z,11.00
2023-01-09T14:43:56.362Z,10.90
2023-01-09T14:46:24.539Z,10.70
2023-01-09T14:49:19.122Z,10.50
2023-01-09T14:51:49.770Z,10.40
2023-01-09T14:54:30.699Z,10.30
2023-01-09T14:56:58.194Z,10.10
2023-01-09T14:59:25.542Z,10.00
2023-01-09T15:01:56.702Z,10.10
2023-01-09T15:04:39.981Z,10.00
2023-01-09T15:07:07.416Z,9.90
2023-01-09T15:09:46.006Z,9.80
2023-01-09T15:12:22.079Z,9.80
2023-01-09T15:14:53.819Z,9.70
2023-01-09T15:17:24.158Z,9.60
2023-01-09T15:19:51.960Z,9.50
2023-01-09T15:22:28.762Z,9.50
2023-01-09T15:24:56.620Z,9.50
2023-01-09T15:27:24.691Z,9.50
2023-01-09T15:29:53.265Z,9.50
2023-01-09T15:32:29.682Z,9.40
2023-01-09T15:34:57.875Z,9.40
2023-01-09T15:37:27.452Z,9.30
2023-01-09T15:39:56.117Z,9.20
2023-01-09T15:42:50.904Z,9.00
2023-01-09T15:45:33.046Z,9.10
2023-01-09T15:48:23.512Z,9.00
2023-01-09T15:50:59.003Z,8.90
2023-01-09T15:53:27.952Z,8.80
2023-01-09T15:56:12.452Z,8.60
2023-01-09T15:58:47.013Z,8.60
2023-01-09T16:01:17.453Z,8.50
2023-01-09T16:03:45.794Z,8.50
2023-01-09T16:06:28.745Z,8.50
2023-01-09T16:08:58.496Z,8.50
2023-01-09T16:11:34.938Z,8.40
2023-01-09T16:14:18.531Z,8.40
2023-01-09T16:16:47.873Z,8.30
2023-01-09T16:19:41.060Z,8.30
2023-01-09T16:22:26.416Z,8.30
2023-01-09T16:24:59.199Z,8.30
2023-01-09T16:27:33.225Z,8.30
2023-01-09T16:30:03.796Z,8.30
2023-01-09T16:32:32.860Z,8.30
2023-01-09T16:35:06.023Z,8.50
2023-01-09T16:37:34.627Z,8.70
2023-01-09T16:40:05.175Z,8.70
2023-01-09T16:42:54.446Z,8.70
2023-01-09T16:45:21.830Z,8.80
2023-01-09T16:47:49.254Z,8.70
2023-01-09T16:50:16.832Z,8.60
2023-01-09T16:52:45.901Z,8.60
2023-01-09T16:55:14.650Z,8.50
2023-01-09T16:57:42.240Z,8.50
2023-01-09T17:00:20.586Z,8.40
2023-01-09T17:02:48.215Z,8.40
2023-01-09T17:05:15.699Z,8.30
2023-01-09T17:07:43.056Z,8.30
2023-01-09T17:10:20.899Z,8.30
2023-01-09T17:12:49.769Z,8.20
2023-01-09T17:15:17.886Z,8.20
2023-01-09T17:17:45.387Z,8.20
2023-01-09T17:20:19.164Z,8.20
2023-01-09T17:22:46.563Z,8.20
2023-01-09T17:25:34.266Z,8.20
2023-01-09T17:28:22.047Z,8.10
2023-01-09T17:30:49.466Z,8.20
2023-01-09T17:33:18.588Z,8.20
2023-01-09T17:35:46.734Z,8.10
2023-01-09T17:38:17.185Z,8.10
2023-01-09T17:40:45.138Z,8.10
2023-01-09T17:43:12.684Z,8.00
2023-01-09T17:45:41.525Z,8.00
2023-01-09T17:48:16.401Z,7.90
2023-01-09T17:50:45.092Z,7.90
2023-01-09T17:53:13.139Z,7.90
2023-01-09T17:55:42.012Z,7.80
2023-01-09T17:58:28.899Z,7.80
2023-01-09T18:00:58.009Z,7.70
2023-01-09T18:03:30.955Z,7.80
2023-01-09T18:05:58.344Z,7.80
2023-01-09T18:08:25.744Z,7.70
2023-01-09T18:10:53.360Z,7.70
2023-01-09T18:13:20.870Z,7.70
2023-01-09T18:15:48.446Z,7.70
2023-01-09T18:18:16.353Z,7.70
2023-01-09T18:20:46.639Z,7.60
2023-01-09T18:23:14.894Z,7.60
2023-01-09T18:25:43.325Z,7.60
2023-01-09T18:28:15.247Z,7.60
2023-01-09T18:30:47.371Z,7.50
2023-01-09T18:33:15.763Z,7.40
2023-01-09T18:35:44.608Z,7.40
2023-01-09T18:38:13.654Z,7.30
2023-01-09T18:40:41.829Z,7.30
2023-01-09T18:43:10.365Z,7.30
2023-01-09T18:45:38.617Z,7.40
2023-01-09T18:48:07.647Z,7.50
2023-01-09T18:50:35.858Z,7.40
2023-01-09T18:53:03.273Z,7.40
2023-01-09T18:55:30.639Z,7.40
2023-01-09T18:57:58.088Z,7.40
2023-01-09T19:00:25.537Z,7.40
2023-01-09T19:02:54.101Z,7.40
2023-01-09T19:05:22.018Z,7.40
2023-01-09T19:07:49.426Z,7.40
2023-01-09T19:10:17.160Z,7.40
2023-01-09T19:12:44.782Z,7.40
2023-01-09T19:15:12.950Z,7.40
2023-01-09T19:17:41.055Z,7.40
2023-01-09T19:20:09.280Z,7.40
2023-01-09T19:22:36.636Z,7.40
2023-01-09T19:25:04.239Z,7.40
2023-01-09T19:27:31.664Z,7.40
2023-01-09T19:29:59.055Z,7.40
2023-01-09T19:32:26.490Z,7.40
2023-01-09T19:34:54.008Z,7.30
2023-01-09T19:37:21.429Z,7.30
2023-01-09T19:39:48.886Z,7.20
2023-01-09T19:42:17.915Z,7.20
2023-01-09T19:44:46.193Z,7.10
2023-01-09T19:47:14.286Z,7.10
2023-01-09T19:49:41.774Z,7.10
2023-01-09T19:52:09.212Z,7.00
2023-01-09T19:54:36.630Z,7.00
2023-01-09T19:57:04.064Z,7.00
2023-01-09T19:59:31.617Z,7.00
2023-01-09T20:01:59.047Z,7.00
2023-01-09T20:04:27.588Z,7.00
2023-01-09T20:06:55.248Z,7.00
2023-01-09T20:09:25.825Z,6.90
2023-01-09T20:11:53.295Z,7.00
2023-01-09T20:14:20.918Z,7.00
2023-01-09T20:16:48.870Z,7.00
2023-01-09T20:19:16.843Z,7.00
2023-01-09T20:21:45.123Z,7.00
2023-01-09T20:24:16.636Z,6.90
2023-01-09T20:26:46.089Z,6.90
2023-01-09T20:29:13.663Z,6.90
2023-01-09T20:31:41.118Z,6.90
2023-01-09T20:34:11.958Z,6.90
2023-01-09T20:36:39.786Z,6.90
2023-01-09T20:39:11.098Z,6.90
2023-01-09T20:41:38.947Z,6.90
2023-01-09T20:44:09.457Z,6.80
2023-01-09T20:46:42.070Z,6.70
2023-01-09T20:49:12.957Z,6.70
2023-01-09T20:51:49.555Z,6.70
2023-01-09T20:54:18.871Z,6.70
2023-01-09T20:56:46.352Z,6.60
2023-01-09T20:59:17.534Z,6.60
2023-01-09T21:01:44.963Z,6.50
2023-01-09T21:04:12.434Z,6.40
2023-01-09T21:06:39.969Z,6.40
2023-01-09T21:09:07.505Z,6.30
2023-01-09T21:11:34.925Z,6.20
2023-01-09T21:14:02.316Z,6.20
2023-01-09T21:16:30.178Z,6.20
2023-01-09T21:18:57.641Z,6.20
2023-01-09T21:21:29.761Z,6.20
2023-01-09T21:23:58.777Z,6.10
2023-01-09T21:26:28.962Z,6.00
2023-01-09T21:28:57.975Z,5.90
2023-01-09T21:31:33.532Z,5.80
2023-01-09T21:34:04.540Z,5.80
2023-01-09T21:36:32.912Z,5.80
2023-01-09T21:39:01.231Z,5.80
2023-01-09T21:41:47.357Z,5.80
2023-01-09T21:44:33.074Z,5.80
2023-01-09T21:47:01.801Z,5.80
2023-01-09T21:49:31.403Z,5.80
2023-01-09T21:51:58.842Z,5.80
2023-01-09T21:54:26.254Z,5.80
2023-01-09T21:56:54.585Z,5.80
2023-01-09T21:59:22.873Z,5.80
2023-01-09T22:01:50.979Z,5.80
2023-01-09T22:04:21.003Z,5.70
2023-01-09T22:06:48.371Z,5.70
2023-01-09T22:09:16.838Z,5.60
2023-01-09T22:11:44.573Z,5.60
2023-01-09T22:14:14.559Z,5.60
2023-01-09T22:16:43.748Z,5.60
2023-01-09T22:19:12.328Z,5.50
2023-01-09T22:21:40.882Z,5.50
2023-01-09T22:24:09.287Z,5.50
2023-01-09T22:26:36.927Z,5.40
2023-01-09T22:29:04.309Z,5.40
2023-01-09T22:31:33.058Z,5.50
2023-01-09T22:34:02.280Z,5.40
2023-01-09T22:36:31.108Z,5.40
2023-01-09T22:39:00.525Z,5.30
2023-01-09T22:41:31.846Z,5.30
2023-01-09T22:43:59.597Z,5.20
2023-01-09T22:46:27.014Z,5.10
2023-01-09T22:48:54.394Z,5.20
2023-01-09T22:51:22.434Z,5.20
2023-01-09T22:53:50.714Z,5.30
2023-01-09T22:56:21.965Z,5.30
2023-01-09T22:58:54.678Z,5.30
2023-01-09T23:01:22.860Z,5.30
2023-01-09T23:03:50.530Z,5.20
2023-01-09T23:06:20.426Z,5.10
2023-01-09T23:08:50.642Z,5.10
2023-01-09T23:11:43.780Z,5.00
2023-01-09T23:14:12.353Z,5.10
2023-01-09T23:16:39.974Z,5.20
2023-01-09T23:19:08.970Z,5.20
2023-01-09T23:21:37.148Z,5.10
2023-01-09T23:24:06.896Z,5.10
2023-01-09T23:26:35.580Z,5.00
2023-01-09T23:29:06.958Z,4.90
2023-01-09T23:31:35.232Z,4.90
2023-01-09T23:34:03.890Z,5.10
2023-01-09T23:36:31.342Z,5.10
2023-01-09T23:38:59.671Z,5.10
2023-01-09T23:41:47.095Z,5.10
2023-01-09T23:44:14.533Z,5.10
2023-01-09T23:46:41.854Z,5.10
2023-01-09T23:49:09.884Z,5.00
2023-01-09T23:51:37.303Z,5.00
2023-01-09T23:54:04.757Z,5.00
2023-01-09T23:56:33.969Z,5.00
2023-01-09T23:59:02.150Z,5.00
